Time;durP1;ratioP1;P1;durP2;ratioP2;P2;SDS_P1;SDS_P2;PMS_P1;PMS_P2;Temp;Humidity;BMP_temperature;BMP_pressure;BME280_temperature;BME280_humidity;BME280_pressure;Samples;Min_cycle;Max_cycle;Signal;HPM_P1;HPM_P2
2021/10/24 00:00:53;;;;;;;6.33;4.57;;;;;;;8.13;68.53;101445.91;4858456;29;20433;-74
2021/10/24 00:03:19;;;;;;;7.73;4.20;;;;;;;8.12;68.55;101441.53;4839481;29;20460;-75
2021/10/24 00:05:44;;;;;;;26.87;5.77;;;;;;;8.09;68.71;101443.81;4840938;29;20929;-75
2021/10/24 00:08:10;;;;;;;7.55;4.15;;;;;;;8.04;68.94;101440.88;4857752;29;20529;-74
2021/10/24 00:10:35;;;;;;;9.00;4.87;;;;;;;8.02;68.87;101446.50;4858087;29;20422;-75
2021/10/24 00:13:00;;;;;;;7.23;4.37;;;;;;;8.02;68.51;101437.56;4843679;29;20425;-74
2021/10/24 00:15:25;;;;;;;7.47;4.68;;;;;;;8.02;68.58;101437.56;4861567;29;20770;-75
2021/10/24 00:17:51;;;;;;;7.80;4.83;;;;;;;7.93;68.68;101434.25;4857659;29;20490;-75
2021/10/24 00:20:16;;;;;;;10.02;5.18;;;;;;;7.88;68.81;101441.25;4843645;29;20486;-75
2021/10/24 00:22:42;;;;;;;7.32;4.43;;;;;;;7.89;69.07;101437.53;4843306;29;20755;-75
2021/10/24 00:25:07;;;;;;;4.97;3.97;;;;;;;7.90;68.29;101428.41;4860665;29;20489;-75
2021/10/24 00:27:33;;;;;;;8.47;4.70;;;;;;;7.92;68.59;101431.72;4861324;29;20414;-75
2021/10/24 00:29:58;;;;;;;7.57;4.60;;;;;;;7.95;68.70;101432.16;4843978;29;20763;-75
2021/10/24 00:32:23;;;;;;;8.27;4.57;;;;;;;7.95;68.34;101432.16;4843894;29;20407;-74
2021/10/24 00:34:49;;;;;;;7.13;4.47;;;;;;;7.94;68.60;101432.34;4844635;29;20497;-75
2021/10/24 00:37:14;;;;;;;6.03;4.20;;;;;;;7.86;69.25;101427.97;4843531;29;20462;-75
2021/10/24 00:39:40;;;;;;;8.88;3.97;;;;;;;7.78;69.18;101431.69;4844846;29;20909;-75
2021/10/24 00:42:05;;;;;;;9.67;4.63;;;;;;;7.73;69.40;101436.88;4860555;29;20414;-75
2021/10/24 00:44:32;;;;;;;8.23;4.90;;;;;;;7.69;70.07;101429.38;4860891;29;20978;-75
2021/10/24 00:47:01;;;;;;;10.52;4.78;;;;;;;7.68;69.92;101433.94;4861065;29;20437;-75
2021/10/24 00:49:26;;;;;;;7.57;4.68;;;;;;;7.71;70.51;101438.09;4858770;29;20426;-75
2021/10/24 00:51:53;;;;;;;10.43;5.20;;;;;;;7.72;70.90;101427.09;4858452;29;20517;-76
2021/10/24 00:54:20;;;;;;;7.53;4.78;;;;;;;7.69;70.33;101423.97;4859903;29;20436;-75
2021/10/24 00:56:48;;;;;;;6.55;4.63;;;;;;;7.67;70.38;101423.38;4844417;29;20467;-75
2021/10/24 00:59:14;;;;;;;9.38;4.97;;;;;;;7.62;70.88;101420.44;4860674;29;20444;-75
2021/10/24 01:01:40;;;;;;;9.32;4.78;;;;;;;7.61;70.70;101421.44;4857287;29;20493;-75
2021/10/24 01:04:05;;;;;;;7.03;4.43;;;;;;;7.62;70.00;101417.72;4860420;29;20419;-75
2021/10/24 01:06:35;;;;;;;9.27;5.00;;;;;;;7.62;70.82;101421.25;4842453;29;20823;-74
2021/10/24 01:09:07;;;;;;;9.60;5.40;;;;;;;7.64;70.90;101415.69;4843802;29;20808;-75
2021/10/24 01:11:33;;;;;;;11.40;5.63;;;;;;;7.61;70.20;101413.34;4860680;29;20497;-75
2021/10/24 01:13:58;;;;;;;7.87;4.90;;;;;;;7.60;70.76;101406.31;4860712;29;20900;-75
2021/10/24 01:16:24;;;;;;;7.17;4.63;;;;;;;7.56;70.65;101405.06;4860334;29;20413;-75
2021/10/24 01:18:50;;;;;;;6.95;4.63;;;;;;;7.53;70.71;101397.38;4860536;29;20453;-75
2021/10/24 01:21:16;;;;;;;8.60;5.30;;;;;;;7.50;70.17;101401.31;4854615;29;20479;-75
2021/10/24 01:23:42;;;;;;;8.40;4.80;;;;;;;7.47;70.48;101396.31;4842330;29;20418;-75
2021/10/24 01:26:08;;;;;;;9.57;4.80;;;;;;;7.45;70.10;101401.06;4848139;29;20414;-75
2021/10/24 01:28:34;;;;;;;8.05;5.63;;;;;;;7.42;70.48;101397.94;4859291;29;20418;-75
2021/10/24 01:30:59;;;;;;;8.38;4.93;;;;;;;7.42;70.11;101389.84;4859913;29;20795;-75
2021/10/24 01:33:24;;;;;;;5.30;4.05;;;;;;;7.47;70.06;101396.31;4843757;29;20547;-75
2021/10/24 01:35:55;;;;;;;6.57;4.50;;;;;;;7.51;70.05;101394.84;4856930;29;20458;-74
2021/10/24 01:38:22;;;;;;;6.40;4.30;;;;;;;7.53;70.30;101395.50;4842781;29;20418;-75
2021/10/24 01:40:49;;;;;;;9.07;5.28;;;;;;;7.49;69.76;101390.72;4841497;29;20411;-75
2021/10/24 01:43:15;;;;;;;7.05;4.50;;;;;;;7.46;69.58;101388.41;4843567;29;20425;-75
2021/10/24 01:45:41;;;;;;;7.43;4.63;;;;;;;7.48;69.79;101387.16;4858794;29;20447;-74
2021/10/24 01:48:06;;;;;;;7.00;4.70;;;;;;;7.50;69.53;101392.38;4859657;29;20918;-75
2021/10/24 01:50:32;;;;;;;7.23;4.93;;;;;;;7.49;70.11;101394.25;4855644;29;20782;-74
2021/10/24 01:52:58;;;;;;;10.85;5.10;;;;;;;7.47;69.42;101385.53;4859933;29;20414;-75
2021/10/24 01:55:23;;;;;;;7.47;4.50;;;;;;;7.47;70.09;101388.22;4859538;29;20471;-75
2021/10/24 01:57:52;;;;;;;7.10;5.00;;;;;;;7.47;69.30;101382.00;4859456;29;20414;-75
2021/10/24 02:00:18;;;;;;;6.13;4.97;;;;;;;7.40;69.50;101381.97;4859635;29;20899;-75
2021/10/24 02:02:44;;;;;;;8.70;4.63;;;;;;;7.30;69.81;101376.97;4843072;29;20438;-75
2021/10/24 02:05:09;;;;;;;8.50;5.13;;;;;;;7.21;70.08;101372.75;4839001;29;20426;-75
2021/10/24 02:07:35;;;;;;;6.00;4.63;;;;;;;7.18;69.80;101370.47;4856452;29;20482;-75
2021/10/24 02:10:01;;;;;;;7.63;4.90;;;;;;;7.18;69.95;101372.31;4859383;29;20437;-75
2021/10/24 02:12:26;;;;;;;7.35;4.75;;;;;;;7.20;69.67;101367.56;4859230;29;20421;-75
2021/10/24 02:14:52;;;;;;;9.30;5.20;;;;;;;7.19;70.33;101365.91;4841918;29;20501;-75
2021/10/24 02:17:17;;;;;;;8.73;5.50;;;;;;;7.15;69.93;101364.63;4858976;29;20414;-75
2021/10/24 02:19:42;;;;;;;7.85;5.55;;;;;;;7.03;69.76;101356.31;4857462;29;20438;-75
2021/10/24 02:22:08;;;;;;;9.27;5.03;;;;;;;6.98;70.61;101350.66;4858418;29;20422;-74
2021/10/24 02:24:33;;;;;;;9.60;4.53;;;;;;;7.04;70.20;101344.50;4859344;29;20814;-75
2021/10/24 02:26:59;;;;;;;11.20;5.63;;;;;;;7.06;69.73;101352.38;4858678;29;20454;-75
2021/10/24 02:29:24;;;;;;;8.93;4.70;;;;;;;7.08;69.71;101350.31;4857077;29;20492;-75
2021/10/24 02:31:49;;;;;;;9.03;4.80;;;;;;;7.07;69.72;101346.78;4858857;29;20429;-75
2021/10/24 02:34:15;;;;;;;15.83;5.40;;;;;;;7.07;69.60;101345.94;4857587;29;20449;-75
2021/10/24 02:36:40;;;;;;;11.60;4.80;;;;;;;7.06;69.34;101338.88;4859151;29;20422;-75
2021/10/24 02:39:05;;;;;;;8.73;5.00;;;;;;;7.04;69.75;101349.06;4858485;29;20460;-75
2021/10/24 02:41:30;;;;;;;10.97;5.50;;;;;;;7.00;69.85;101339.69;4857896;29;20775;-75
2021/10/24 02:43:56;;;;;;;5.30;4.10;;;;;;;6.93;69.78;101345.06;4859726;29;20432;-75
2021/10/24 02:46:21;;;;;;;8.85;4.97;;;;;;;6.88;70.00;101347.53;4842210;29;20430;-75
2021/10/24 02:48:46;;;;;;;7.87;4.73;;;;;;;6.88;70.48;101346.69;4856709;29;20818;-75
2021/10/24 02:51:12;;;;;;;8.57;5.47;;;;;;;6.92;70.56;101343.38;4859552;29;20442;-75
2021/10/24 02:53:37;;;;;;;7.75;4.63;;;;;;;6.93;70.44;101341.53;4858293;29;20774;-75
2021/10/24 02:56:03;;;;;;;8.37;4.53;;;;;;;6.87;69.88;101334.25;4859228;29;20446;-75
2021/10/24 02:58:28;;;;;;;5.60;4.67;;;;;;;6.78;70.09;101334.38;4858575;29;20464;-75
2021/10/24 03:00:53;;;;;;;8.83;4.80;;;;;;;6.75;70.07;101342.06;4858491;29;20472;-75
2021/10/24 03:03:19;;;;;;;11.53;5.73;;;;;;;6.74;70.62;101338.53;4857334;29;20426;-75
2021/10/24 03:05:44;;;;;;;7.40;4.57;;;;;;;6.71;70.43;101335.41;4858240;29;20934;-75
2021/10/24 03:08:09;;;;;;;9.57;5.03;;;;;;;6.67;70.62;101326.88;4858619;29;20414;-75
2021/10/24 03:10:35;;;;;;;8.97;5.23;;;;;;;6.71;71.12;101330.00;4858854;29;20420;-75
2021/10/24 03:13:00;;;;;;;9.00;5.40;;;;;;;6.66;70.86;101335.16;4858098;29;20446;-75
2021/10/24 03:15:25;;;;;;;9.57;5.05;;;;;;;6.63;70.79;101328.31;4859041;29;20467;-75
2021/10/24 03:17:50;;;;;;;8.93;4.77;;;;;;;6.63;70.92;101330.16;4857179;29;20461;-75
2021/10/24 03:20:16;;;;;;;7.23;4.60;;;;;;;6.64;71.07;101331.84;4858839;29;20465;-75
2021/10/24 03:22:41;;;;;;;12.37;4.97;;;;;;;6.60;71.39;101328.69;4858065;29;20433;-75
2021/10/24 03:25:07;;;;;;;6.57;4.70;;;;;;;6.59;70.92;101335.09;4858325;29;20425;-75
2021/10/24 03:27:32;;;;;;;7.57;4.28;;;;;;;6.58;71.52;101333.47;4858484;29;20441;-75
2021/10/24 03:29:58;;;;;;;8.77;5.33;;;;;;;6.59;71.03;101332.41;4858696;29;20498;-75
2021/10/24 03:32:24;;;;;;;8.80;4.82;;;;;;;6.61;71.46;101333.06;4824531;29;20486;-75
2021/10/24 03:34:49;;;;;;;9.83;5.07;;;;;;;6.66;71.40;101335.97;4858321;29;20421;-75
2021/10/24 03:37:14;;;;;;;9.60;4.97;;;;;;;6.70;71.14;101336.44;4841902;29;20426;-75
2021/10/24 03:39:40;;;;;;;7.07;4.93;;;;;;;6.67;71.40;101334.97;4858136;29;20434;-75
2021/10/24 03:42:05;;;;;;;8.17;4.53;;;;;;;6.62;71.16;101336.56;4858590;29;20499;-75
2021/10/24 03:44:30;;;;;;;10.13;4.97;;;;;;;6.56;71.33;101334.66;4858214;29;20418;-75
2021/10/24 03:46:56;;;;;;;6.70;4.83;;;;;;;6.55;71.23;101330.34;4858096;29;20930;-75
2021/10/24 03:49:21;;;;;;;6.77;4.80;;;;;;;6.59;71.61;101331.56;4845179;29;20442;-75
2021/10/24 03:51:46;;;;;;;8.67;5.00;;;;;;;6.59;71.74;101327.03;4861896;29;20478;-75
2021/10/24 03:54:12;;;;;;;8.07;5.00;;;;;;;6.58;71.55;101330.78;4862377;29;20421;-75
2021/10/24 03:56:38;;;;;;;9.15;5.45;;;;;;;6.56;71.47;101334.66;4861235;29;20441;-74
2021/10/24 03:59:03;;;;;;;8.97;5.07;;;;;;;6.59;71.04;101329.72;4861666;29;20482;-75
2021/10/24 04:01:28;;;;;;;10.80;4.60;;;;;;;6.57;71.27;101326.41;4859854;29;20497;-75
2021/10/24 04:03:53;;;;;;;8.53;4.83;;;;;;;6.60;71.29;101325.16;4861648;29;20843;-75
2021/10/24 04:06:19;;;;;;;7.90;4.83;;;;;;;6.59;71.05;101327.03;4860661;29;20476;-75
2021/10/24 04:08:44;;;;;;;6.63;4.53;;;;;;;6.59;71.54;101329.72;4861260;29;20426;-75
2021/10/24 04:11:09;;;;;;;6.57;4.87;;;;;;;6.60;71.23;101327.88;4861977;29;20418;-75
2021/10/24 04:13:35;;;;;;;8.57;4.53;;;;;;;6.59;71.31;101332.41;4861637;29;20919;-75
2021/10/24 04:16:00;;;;;;;6.30;5.50;;;;;;;6.61;71.10;101329.53;4853592;29;20444;-75
2021/10/24 04:18:25;;;;;;;10.00;5.10;;;;;;;6.61;71.17;101330.38;4861689;29;20442;-75
2021/10/24 04:20:50;;;;;;;8.87;4.93;;;;;;;6.60;71.43;101327.88;4860953;29;20433;-75
2021/10/24 04:23:16;;;;;;;5.63;4.37;;;;;;;6.60;71.74;101328.69;4861221;29;20430;-75
2021/10/24 04:25:41;;;;;;;8.35;4.65;;;;;;;6.60;71.27;101334.09;4844307;29;20441;-75
2021/10/24 04:28:07;;;;;;;8.07;4.67;;;;;;;6.59;71.05;101326.19;4861620;29;20497;-75
2021/10/24 04:30:33;;;;;;;6.27;5.07;;;;;;;6.59;70.95;101331.56;4859425;29;20426;-75
2021/10/24 04:32:59;;;;;;;6.13;5.07;;;;;;;6.55;70.99;101339.22;4861398;29;20410;-75
2021/10/24 04:35:24;;;;;;;6.15;4.53;;;;;;;6.56;71.24;101334.66;4861100;29;20434;-75
2021/10/24 04:37:49;;;;;;;7.73;5.20;;;;;;;6.56;71.00;101331.97;4844625;29;20505;-75
2021/10/24 04:40:15;;;;;;;7.03;4.63;;;;;;;6.53;71.14;101335.91;4860415;29;20703;-75
2021/10/24 04:42:40;;;;;;;7.85;4.82;;;;;;;6.50;71.34;101333.59;4843202;29;20410;-75
2021/10/24 04:45:07;;;;;;;6.97;5.17;;;;;;;6.47;71.22;101331.31;4859738;29;20454;-75
2021/10/24 04:47:33;;;;;;;8.97;4.27;;;;;;;6.45;71.83;101327.16;4844271;29;20915;-75
2021/10/24 04:49:58;;;;;;;5.43;4.68;;;;;;;6.44;71.69;101336.25;4860917;29;20422;-75
2021/10/24 04:52:23;;;;;;;8.87;5.23;;;;;;;6.41;71.81;101345.56;4860442;29;20422;-75
2021/10/24 04:54:49;;;;;;;12.03;4.90;;;;;;;6.39;71.71;101336.03;4844175;29;20414;-75
2021/10/24 04:57:14;;;;;;;7.53;4.68;;;;;;;6.37;71.65;101333.50;4861052;29;20414;-75
2021/10/24 04:59:40;;;;;;;6.25;4.68;;;;;;;6.37;71.65;101324.59;4857379;29;20434;-75
2021/10/24 05:02:06;;;;;;;11.32;7.28;;;;;;;6.36;72.11;101331.00;4861041;29;20445;-75
2021/10/24 05:04:31;;;;;;;8.73;7.73;;;;;;;6.35;71.65;101337.44;4860192;29;20895;-74
2021/10/24 05:06:56;;;;;;;9.00;7.73;;;;;;;6.32;71.69;101335.13;4843346;29;20414;-75
2021/10/24 05:09:21;;;;;;;8.73;7.25;;;;;;;6.29;71.71;101335.53;4860063;29;20497;-75
2021/10/24 05:11:47;;;;;;;7.20;6.27;;;;;;;6.25;72.38;101335.94;4860350;29;20418;-75
2021/10/24 05:14:12;;;;;;;10.90;6.13;;;;;;;6.23;72.46;101332.56;4858782;29;20461;-75
2021/10/24 05:16:38;;;;;;;7.47;5.13;;;;;;;6.22;71.75;101338.16;4860317;29;20450;-75
2021/10/24 05:19:04;;;;;;;8.18;5.00;;;;;;;6.19;72.03;101328.59;4860106;29;20429;-75
2021/10/24 05:21:32;;;;;;;5.75;4.47;;;;;;;6.15;72.43;101330.03;4860506;29;20493;-75
2021/10/24 05:23:58;;;;;;;12.55;5.35;;;;;;;6.14;72.33;101328.38;4860017;29;20414;-75
2021/10/24 05:26:23;;;;;;;7.95;5.25;;;;;;;6.13;72.39;101332.09;4858899;29;20418;-75
2021/10/24 05:28:48;;;;;;;10.43;5.07;;;;;;;6.12;72.31;101324.22;4853990;29;20395;-75
2021/10/24 05:31:14;;;;;;;8.67;5.27;;;;;;;6.10;72.58;101323.56;4828822;29;20462;-74
2021/10/24 05:33:40;;;;;;;7.88;4.93;;;;;;;6.08;72.51;101329.16;4860195;29;20466;-75
2021/10/24 05:36:05;;;;;;;9.45;5.53;;;;;;;6.05;72.68;101329.53;4860422;29;20406;-75
2021/10/24 05:38:31;;;;;;;6.72;5.38;;;;;;;6.02;72.34;101326.41;4860323;29;20970;-74
2021/10/24 05:40:56;;;;;;;9.55;5.30;;;;;;;6.00;72.54;101326.59;4860790;29;20406;-75
2021/10/24 05:43:22;;;;;;;7.17;4.97;;;;;;;5.98;72.52;101325.13;4858839;29;20809;-75
2021/10/24 05:45:47;;;;;;;9.90;5.23;;;;;;;5.96;72.48;101330.69;4859675;29;20792;-75
2021/10/24 05:48:14;;;;;;;9.10;5.80;;;;;;;5.96;72.41;101324.50;4857568;29;20426;-75
2021/10/24 05:50:40;;;;;;;9.50;5.88;;;;;;;5.94;71.98;101324.69;4860309;29;20406;-75
2021/10/24 05:53:05;;;;;;;10.70;6.60;;;;;;;5.95;72.66;101326.34;4860145;29;20410;-75
2021/10/24 05:55:31;;;;;;;9.37;5.70;;;;;;;5.93;72.41;101322.19;4843031;29;20413;-75
2021/10/24 05:57:56;;;;;;;10.03;7.13;;;;;;;5.90;72.67;101328.78;4857731;29;20422;-75
2021/10/24 06:00:22;;;;;;;11.60;7.47;;;;;;;5.88;72.57;101325.47;4858684;29;20769;-75
2021/10/24 06:02:47;;;;;;;12.30;7.82;;;;;;;5.87;72.75;101326.47;4839249;29;20433;-76
2021/10/24 06:05:12;;;;;;;11.77;7.60;;;;;;;5.86;72.65;101332.88;4858786;29;20426;-76
2021/10/24 06:07:38;;;;;;;10.70;7.10;;;;;;;5.85;72.22;101330.34;4859307;29;20426;-75
2021/10/24 06:10:13;;;;;;;10.20;6.73;;;;;;;5.87;72.59;101341.78;4852285;29;20420;-75
2021/10/24 06:12:42;;;;;;;14.53;8.40;;;;;;;5.87;72.63;101342.63;4859589;29;20448;-75
2021/10/24 06:15:11;;;;;;;16.92;9.45;;;;;;;5.91;72.30;101337.69;4859213;29;20425;-75
2021/10/24 06:17:36;;;;;;;18.15;10.13;;;;;;;5.93;71.39;101341.84;4857546;29;20815;-75
2021/10/24 06:20:03;;;;;;;12.80;6.40;;;;;;;5.91;70.62;101343.91;4850926;29;20468;-76
2021/10/24 06:22:29;;;;;;;8.90;6.35;;;;;;;5.82;70.24;101336.13;4850573;29;20454;-76
2021/10/24 06:24:54;;;;;;;9.27;7.17;;;;;;;5.75;70.17;101341.44;4855997;29;21222;-75
2021/10/24 06:27:19;;;;;;;7.05;4.80;;;;;;;5.71;69.88;101342.84;4859702;29;20527;-75
2021/10/24 06:29:45;;;;;;;6.93;4.87;;;;;;;5.66;69.36;101339.91;4858492;29;20411;-75
2021/10/24 06:32:10;;;;;;;9.57;6.07;;;;;;;5.62;69.76;101349.38;4859760;29;20405;-75
2021/10/24 06:34:35;;;;;;;5.53;4.80;;;;;;;5.60;69.76;101351.41;4859607;29;20459;-75
2021/10/24 06:37:01;;;;;;;6.67;5.10;;;;;;;5.60;69.97;101359.47;4857520;29;20477;-75
2021/10/24 06:39:26;;;;;;;8.53;4.47;;;;;;;5.58;69.52;101362.38;4842973;29;20993;-75
2021/10/24 06:41:51;;;;;;;5.80;4.03;;;;;;;5.57;69.74;101355.31;4858584;29;20442;-74
2021/10/24 06:44:16;;;;;;;5.20;3.70;;;;;;;5.58;69.89;101356.97;4859537;29;20820;-75
2021/10/24 06:46:42;;;;;;;7.43;4.07;;;;;;;5.55;69.78;101353.84;4848685;29;20457;-75
2021/10/24 06:49:07;;;;;;;6.03;3.80;;;;;;;5.59;69.84;101357.81;4851956;29;20854;-74
2021/10/24 06:51:33;;;;;;;4.00;3.07;;;;;;;5.63;69.53;101362.59;4854137;29;20446;-75
2021/10/24 06:53:58;;;;;;;6.70;4.20;;;;;;;5.69;69.44;101359.19;4846538;29;20431;-75
2021/10/24 06:56:24;;;;;;;4.88;3.65;;;;;;;5.76;69.09;101362.75;4858750;29;20815;-74
2021/10/24 06:58:49;;;;;;;5.20;3.50;;;;;;;5.87;68.93;101361.44;4857036;29;20826;-75
2021/10/24 07:01:15;;;;;;;12.97;5.50;;;;;;;5.89;69.31;101364.78;4849926;29;20403;-75
2021/10/24 07:03:40;;;;;;;4.25;3.17;;;;;;;5.93;68.56;101352.59;4840869;29;20425;-75
2021/10/24 07:06:05;;;;;;;6.77;3.70;;;;;;;6.02;68.46;101348.78;4841253;29;20817;-75
2021/10/24 07:08:31;;;;;;;6.33;4.27;;;;;;;6.13;68.57;101350.09;4854199;29;20430;-75
2021/10/24 07:10:56;;;;;;;3.30;3.10;;;;;;;6.23;68.29;101353.28;4855790;29;20521;-75
2021/10/24 07:13:21;;;;;;;6.83;4.20;;;;;;;6.33;68.83;101355.63;4858521;29;20414;-75
2021/10/24 07:15:46;;;;;;;8.87;4.00;;;;;;;6.41;68.76;101355.50;4854521;29;20909;-74
2021/10/24 07:18:12;;;;;;;4.80;4.20;;;;;;;6.48;68.12;101346.44;4858777;29;20425;-74
2021/10/24 07:20:37;;;;;;;8.77;7.87;;;;;;;6.55;68.88;101358.06;4854437;29;20918;-74
2021/10/24 07:23:02;;;;;;;8.50;4.40;;;;;;;6.59;68.78;101351.28;4860989;29;20422;-76
2021/10/24 07:25:28;;;;;;;6.47;4.53;;;;;;;6.61;68.77;101351.09;4857830;29;20436;-75
2021/10/24 07:27:53;;;;;;;6.93;4.80;;;;;;;6.57;69.07;101352.50;4860257;29;20445;-74
2021/10/24 07:30:20;;;;;;;5.70;4.90;;;;;;;6.59;69.35;101351.28;4862521;29;20402;-75
2021/10/24 07:32:45;;;;;;;12.48;5.75;;;;;;;6.64;69.56;101356.91;4862145;29;20410;-74
2021/10/24 07:35:11;;;;;;;8.27;5.50;;;;;;;6.69;69.55;101359.81;4859653;29;20422;-74
2021/10/24 07:37:38;;;;;;;8.47;5.43;;;;;;;6.71;70.41;101360.47;4862042;29;20418;-75
2021/10/24 07:40:04;;;;;;;14.45;5.82;;;;;;;6.75;70.53;101359.03;4844432;29;20413;-75
2021/10/24 07:42:29;;;;;;;6.63;5.95;;;;;;;6.78;70.38;101361.31;4862228;29;20459;-75
2021/10/24 07:44:55;;;;;;;9.27;5.70;;;;;;;6.75;70.67;101361.72;4862136;29;20445;-75
2021/10/24 07:47:21;;;;;;;10.13;5.70;;;;;;;6.74;70.61;101359.25;4862552;29;20901;-75
2021/10/24 07:50:02;;;;;;;9.10;5.87;;;;;;;6.69;70.65;101365.22;4862023;29;20426;-75
2021/10/24 07:52:28;;;;;;;8.17;5.20;;;;;;;6.67;70.89;101364.59;4859826;29;20422;-74
2021/10/24 07:54:56;;;;;;;9.48;6.03;;;;;;;6.68;71.26;101362.75;4844336;29;20434;-75
2021/10/24 07:57:24;;;;;;;11.45;7.07;;;;;;;6.68;71.63;101366.28;4847557;29;20410;-75
2021/10/24 07:59:50;;;;;;;10.27;6.55;;;;;;;6.72;71.47;101363.97;4862657;29;20898;-74
2021/10/24 08:02:18;;;;;;;11.87;7.47;;;;;;;6.74;71.57;101365.47;4860439;29;20680;-74
2021/10/24 08:04:47;;;;;;;9.13;6.55;;;;;;;6.79;71.45;101368.38;4861105;29;20511;-74
2021/10/24 08:07:13;;;;;;;9.32;6.50;;;;;;;6.82;71.57;101363.66;4861548;29;20467;-75
2021/10/24 08:09:51;;;;;;;11.30;6.68;;;;;;;6.90;71.43;101363.47;4849871;29;20478;-75
2021/10/24 08:12:17;;;;;;;12.32;7.35;;;;;;;7.03;71.04;101359.00;4855211;29;20476;-74
2021/10/24 08:14:42;;;;;;;10.50;7.20;;;;;;;7.07;70.48;101356.72;4855498;29;20422;-75
2021/10/24 08:17:08;;;;;;;9.87;6.80;;;;;;;7.13;70.82;101358.63;4857637;29;20985;-75
2021/10/24 08:20:05;;;;;;;14.40;7.93;;;;;;;7.07;71.58;101362.97;4865085;29;20458;-74
2021/10/24 08:22:34;;;;;;;12.38;8.55;;;;;;;7.05;71.72;101356.09;4839496;29;20431;-74
2021/10/24 08:25:08;;;;;;;9.98;6.65;;;;;;;7.07;71.19;101360.25;4855096;29;20559;-74
2021/10/24 08:27:34;;;;;;;8.47;6.77;;;;;;;7.10;71.00;101359.03;4861317;29;20759;-75
2021/10/24 08:30:02;;;;;;;11.23;7.32;;;;;;;7.19;70.94;101361.34;4843759;29;20431;-75
2021/10/24 08:32:27;;;;;;;12.18;7.50;;;;;;;7.26;71.29;101364.06;4857373;29;20433;-74
2021/10/24 08:34:53;;;;;;;11.15;7.50;;;;;;;7.32;71.29;101357.88;4861271;29;20414;-74
2021/10/24 08:37:19;;;;;;;12.47;7.87;;;;;;;7.36;70.86;101367.22;4858155;29;20513;-75
2021/10/24 08:39:49;;;;;;;12.70;8.02;;;;;;;7.38;70.68;101364.31;4858779;29;20750;-74
2021/10/24 08:42:16;;;;;;;9.67;7.23;;;;;;;7.46;70.71;101356.88;4858751;29;20498;-74
2021/10/24 08:44:44;;;;;;;11.27;6.83;;;;;;;7.58;71.34;101365.22;4844192;29;20434;-75
2021/10/24 08:47:09;;;;;;;11.57;7.13;;;;;;;7.86;69.97;101367.78;4860787;29;20906;-75
2021/10/24 08:49:38;;;;;;;9.40;7.13;;;;;;;7.98;68.95;101358.03;4854124;29;20426;-74
2021/10/24 08:52:05;;;;;;;7.30;6.50;;;;;;;8.01;69.65;101366.53;4838059;29;20842;-74
2021/10/24 08:54:34;;;;;;;12.50;7.50;;;;;;;7.97;68.46;101361.78;4861390;29;20462;-74
2021/10/24 08:57:00;;;;;;;12.25;8.43;;;;;;;8.48;66.94;101362.84;4843403;29;20974;-74
2021/10/24 08:59:25;;;;;;;13.20;7.87;;;;;;;8.50;66.59;101363.47;4860626;29;20426;-74
2021/10/24 09:01:52;;;;;;;10.63;8.17;;;;;;;8.28;67.91;101351.22;4842745;29;20418;-74
2021/10/24 09:04:19;;;;;;;11.23;7.60;;;;;;;8.19;67.93;101349.75;4854766;29;20886;-75
2021/10/24 09:06:56;;;;;;;10.65;7.47;;;;;;;8.38;67.82;101353.50;4859171;29;20790;-74
2021/10/24 09:09:31;;;;;;;9.07;6.32;;;;;;;8.80;66.67;101359.25;4843365;29;20794;-74
2021/10/24 09:12:08;;;;;;;9.38;5.75;;;;;;;9.14;65.86;101354.59;4844121;29;20419;-74
2021/10/24 09:14:38;;;;;;;8.93;6.60;;;;;;;9.55;65.10;101349.59;4850070;29;20459;-74
2021/10/24 09:17:13;;;;;;;8.25;6.63;;;;;;;9.88;64.34;101341.28;4853149;29;20762;-74
2021/10/24 09:19:41;;;;;;;8.30;6.28;;;;;;;10.01;63.28;101348.50;4855302;29;20509;-74
2021/10/24 09:22:14;;;;;;;7.40;6.20;;;;;;;10.10;63.18;101344.47;4837782;29;20437;-73
2021/10/24 09:25:00;;;;;;;6.57;5.22;;;;;;;10.54;60.96;101346.22;4856107;29;20430;-74
2021/10/24 09:27:26;;;;;;;8.10;5.47;;;;;;;10.42;58.93;101346.09;4853528;29;20421;-74
2021/10/24 09:29:51;;;;;;;6.53;4.33;;;;;;;10.24;59.30;101346.88;4856256;29;20445;-74
2021/10/24 09:32:17;;;;;;;5.30;4.30;;;;;;;10.16;60.17;101347.16;4854008;29;20418;-74
2021/10/24 09:34:42;;;;;;;5.90;4.22;;;;;;;10.33;60.19;101347.44;4859069;29;20542;-74
2021/10/24 09:37:08;;;;;;;7.47;3.97;;;;;;;10.55;59.94;101345.97;4840741;29;20526;-74
2021/10/24 09:39:37;;;;;;;6.80;4.32;;;;;;;11.03;58.66;101345.28;4856006;29;20414;-75
2021/10/24 09:42:13;;;;;;;4.90;4.32;;;;;;;11.63;58.39;101347.00;4836644;29;20486;-74
2021/10/24 09:45:05;;;;;;;8.15;4.68;;;;;;;13.55;54.59;101345.28;4837534;29;20430;-74
2021/10/24 09:47:42;;;;;;;6.25;4.10;;;;;;;15.62;48.24;101343.03;4798233;29;20493;-74
2021/10/24 09:50:10;;;;;;;6.05;4.32;;;;;;;15.77;47.99;101346.78;4799389;29;20853;-74
2021/10/24 09:52:37;;;;;;;8.55;3.40;;;;;;;15.81;45.33;101347.06;4797371;29;23430;-74
2021/10/24 09:55:03;;;;;;;4.72;3.63;;;;;;;15.53;47.24;101343.53;4796671;29;20513;-75
2021/10/24 09:57:29;;;;;;;6.53;4.25;;;;;;;14.98;49.42;101346.31;4796036;29;20447;-74
2021/10/24 09:59:55;;;;;;;3.88;3.33;;;;;;;14.50;51.16;101341.56;4796441;29;23672;-74
2021/10/24 10:02:22;;;;;;;4.07;3.22;;;;;;;14.35;52.13;101340.50;4816622;29;20479;-74
2021/10/24 10:04:47;;;;;;;3.72;3.42;;;;;;;14.42;51.99;101344.69;4820323;29;20410;-74
2021/10/24 10:07:14;;;;;;;5.55;3.30;;;;;;;14.39;51.69;101336.19;4812025;29;20421;-74
2021/10/24 10:09:41;;;;;;;4.30;3.15;;;;;;;14.64;51.53;101327.56;4822685;29;20434;-73
2021/10/24 10:12:07;;;;;;;9.68;3.90;;;;;;;15.37;49.13;101328.00;4820929;29;20422;-74
2021/10/24 10:14:36;;;;;;;6.00;3.47;;;;;;;15.76;47.87;101328.72;4821577;29;20521;-74
2021/10/24 10:17:10;;;;;;;4.05;2.95;;;;;;;15.78;46.79;101331.19;4818965;29;20425;-74
2021/10/24 10:19:38;;;;;;;2.97;2.67;;;;;;;15.68;46.81;101328.34;4814866;29;20429;-74
2021/10/24 10:22:30;;;;;;;6.20;3.28;;;;;;;14.94;48.30;101326.09;4821616;29;20414;-74
2021/10/24 10:25:02;;;;;;;5.30;3.50;;;;;;;13.87;50.57;101333.63;4818588;29;20954;-74
2021/10/24 10:27:28;;;;;;;6.00;3.60;;;;;;;13.10;53.20;101335.16;4822381;29;20742;-74
2021/10/24 10:30:05;;;;;;;4.23;2.80;;;;;;;12.47;54.91;101330.44;4821223;29;20517;-75
2021/10/24 10:32:35;;;;;;;6.22;4.53;;;;;;;11.96;56.47;101313.94;4822030;29;20425;-74
2021/10/24 10:35:06;;;;;;;6.15;3.47;;;;;;;11.59;56.99;101324.06;4821534;29;20970;-73
2021/10/24 10:37:51;;;;;;;5.70;3.40;;;;;;;11.38;58.62;101320.00;4819705;29;20425;-74
2021/10/24 10:40:29;;;;;;;5.25;4.00;;;;;;;11.27;59.76;101323.47;4818558;29;20429;-73
2021/10/24 10:42:56;;;;;;;4.63;3.63;;;;;;;11.10;60.46;101314.28;4811932;29;20430;-74
2021/10/24 10:45:27;;;;;;;7.28;3.95;;;;;;;10.98;61.51;101315.28;4820957;29;20586;-74
2021/10/24 10:47:58;;;;;;;6.30;4.18;;;;;;;10.85;62.22;101310.84;4833434;29;20928;-74
2021/10/24 10:50:29;;;;;;;6.53;4.18;;;;;;;10.72;61.68;101308.28;4841731;29;20588;-74
2021/10/24 10:52:59;;;;;;;5.93;4.10;;;;;;;10.67;62.69;101300.81;4839885;29;20566;-73
2021/10/24 10:55:26;;;;;;;4.80;4.30;;;;;;;10.66;63.37;101309.19;4840659;29;20892;-73
2021/10/24 10:57:52;;;;;;;6.78;4.47;;;;;;;10.63;62.68;101296.09;4839729;29;20544;-73
2021/10/24 11:00:35;;;;;;;6.47;4.82;;;;;;;10.58;63.36;101299.47;4839730;29;20515;-74
2021/10/24 11:03:00;;;;;;;7.53;4.75;;;;;;;10.54;63.94;101295.53;4840376;29;20495;-74
2021/10/24 11:05:39;;;;;;;8.47;4.47;;;;;;;10.56;63.97;101298.88;4838396;29;20423;-74
2021/10/24 11:08:42;;;;;;;18.00;10.38;;;;;;;10.55;64.19;101297.19;4835664;29;20939;-74
2021/10/24 11:11:07;;;;;;;10.70;6.45;;;;;;;10.54;63.20;101289.31;4838584;29;20461;-74
2021/10/24 11:13:32;;;;;;;7.80;5.60;;;;;;;10.51;63.49;101295.97;4837108;29;20427;-74
2021/10/24 11:16:29;;;;;;;9.93;6.40;;;;;;;10.54;64.11;101290.09;4839006;29;20424;-74
2021/10/24 11:18:55;;;;;;;7.07;3.88;;;;;;;10.56;63.65;101293.44;4840252;29;20415;-74
2021/10/24 11:21:29;;;;;;;8.68;4.00;;;;;;;10.57;62.35;101286.16;4835479;29;20432;-74
2021/10/24 11:23:58;;;;;;;10.18;5.93;;;;;;;10.55;63.22;101282.81;4837041;29;20447;-74
2021/10/24 11:26:24;;;;;;;8.47;4.33;;;;;;;10.50;64.00;101286.22;4840442;29;20404;-75
2021/10/24 11:28:50;;;;;;;5.20;4.30;;;;;;;10.48;64.56;101277.47;4836459;29;20926;-74